sensor_id;sensor_type;location;lat;lon;timestamp;P1;durP1;ratioP1;P2;durP2;ratioP2
74616;SDS011;63123;50.906;4.198;2023-07-08T00:00:48;3.25;;;2.85;;
74616;SDS011;63123;50.906;4.198;2023-07-08T00:03:17;3.35;;;3.05;;
74616;SDS011;63123;50.906;4.198;2023-07-08T00:05:44;3.50;;;3.20;;
74616;SDS011;63123;50.906;4.198;2023-07-08T00:08:12;3.38;;;3.08;;
74616;SDS011;63123;50.906;4.198;2023-07-08T00:10:42;3.53;;;3.20;;
74616;SDS011;63123;50.906;4.198;2023-07-08T00:13:08;3.25;;;2.95;;
74616;SDS011;63123;50.906;4.198;2023-07-08T00:15:35;3.53;;;3.22;;
74616;SDS011;63123;50.906;4.198;2023-07-08T00:18:01;3.30;;;3.00;;
74616;SDS011;63123;50.906;4.198;2023-07-08T00:20:38;3.35;;;3.05;;
74616;SDS011;63123;50.906;4.198;2023-07-08T00:23:05;3.53;;;3.22;;
74616;SDS011;63123;50.906;4.198;2023-07-08T00:25:33;3.17;;;2.88;;
74616;SDS011;63123;50.906;4.198;2023-07-08T00:27:58;3.05;;;2.75;;
74616;SDS011;63123;50.906;4.198;2023-07-08T00:30:28;3.95;;;3.25;;
74616;SDS011;63123;50.906;4.198;2023-07-08T00:32:55;3.20;;;2.90;;
74616;SDS011;63123;50.906;4.198;2023-07-08T00:35:41;3.38;;;3.08;;
74616;SDS011;63123;50.906;4.198;2023-07-08T00:40:37;3.40;;;3.10;;
74616;SDS011;63123;50.906;4.198;2023-07-08T00:43:12;3.67;;;3.38;;
74616;SDS011;63123;50.906;4.198;2023-07-08T00:45:38;3.42;;;3.13;;
74616;SDS011;63123;50.906;4.198;2023-07-08T00:48:23;3.10;;;2.80;;
74616;SDS011;63123;50.906;4.198;2023-07-08T00:50:58;3.20;;;3.00;;
74616;SDS011;63123;50.906;4.198;2023-07-08T00:53:41;3.65;;;3.30;;
74616;SDS011;63123;50.906;4.198;2023-07-08T00:57:08;3.47;;;3.15;;
74616;SDS011;63123;50.906;4.198;2023-07-08T00:59:21;2.97;;;2.78;;
74616;SDS011;63123;50.906;4.198;2023-07-08T01:01:51;3.25;;;2.92;;
74616;SDS011;63123;50.906;4.198;2023-07-08T01:04:22;3.25;;;2.95;;
74616;SDS011;63123;50.906;4.198;2023-07-08T01:06:56;3.28;;;2.97;;
74616;SDS011;63123;50.906;4.198;2023-07-08T01:09:24;3.67;;;3.35;;
74616;SDS011;63123;50.906;4.198;2023-07-08T01:12:01;3.20;;;2.90;;
74616;SDS011;63123;50.906;4.198;2023-07-08T01:14:30;3.80;;;3.40;;
74616;SDS011;63123;50.906;4.198;2023-07-08T01:16:57;3.78;;;3.45;;
74616;SDS011;63123;50.906;4.198;2023-07-08T01:19:23;3.22;;;2.78;;
74616;SDS011;63123;50.906;4.198;2023-07-08T01:24:25;3.22;;;2.92;;
74616;SDS011;63123;50.906;4.198;2023-07-08T01:26:54;3.40;;;3.10;;
74616;SDS011;63123;50.906;4.198;2023-07-08T01:29:20;3.25;;;2.95;;
74616;SDS011;63123;50.906;4.198;2023-07-08T01:31:46;3.75;;;3.35;;
74616;SDS011;63123;50.906;4.198;2023-07-08T01:34:14;3.33;;;3.03;;
74616;SDS011;63123;50.906;4.198;2023-07-08T01:36:43;3.33;;;3.03;;
74616;SDS011;63123;50.906;4.198;2023-07-08T01:39:13;3.28;;;2.97;;
74616;SDS011;63123;50.906;4.198;2023-07-08T01:41:42;3.33;;;3.03;;
74616;SDS011;63123;50.906;4.198;2023-07-08T01:46:58;3.47;;;3.17;;
74616;SDS011;63123;50.906;4.198;2023-07-08T01:49:29;3.50;;;3.20;;
74616;SDS011;63123;50.906;4.198;2023-07-08T01:51:57;3.05;;;2.75;;
74616;SDS011;63123;50.906;4.198;2023-07-08T01:54:23;3.00;;;2.70;;
74616;SDS011;63123;50.906;4.198;2023-07-08T01:56:54;3.17;;;2.88;;
74616;SDS011;63123;50.906;4.198;2023-07-08T01:59:23;3.13;;;2.80;;
74616;SDS011;63123;50.906;4.198;2023-07-08T02:01:49;3.33;;;3.03;;
74616;SDS011;63123;50.906;4.198;2023-07-08T02:04:19;3.63;;;3.30;;
74616;SDS011;63123;50.906;4.198;2023-07-08T02:06:50;3.17;;;2.97;;
74616;SDS011;63123;50.906;4.198;2023-07-08T02:09:17;3.38;;;3.08;;
74616;SDS011;63123;50.906;4.198;2023-07-08T02:11:42;3.15;;;2.85;;
74616;SDS011;63123;50.906;4.198;2023-07-08T02:14:08;3.50;;;3.20;;
74616;SDS011;63123;50.906;4.198;2023-07-08T02:16:33;3.80;;;3.47;;
74616;SDS011;63123;50.906;4.198;2023-07-08T02:18:59;3.08;;;2.85;;
74616;SDS011;63123;50.906;4.198;2023-07-08T02:21:24;3.05;;;2.67;;
74616;SDS011;63123;50.906;4.198;2023-07-08T02:23:50;3.55;;;3.25;;
74616;SDS011;63123;50.906;4.198;2023-07-08T02:26:17;3.72;;;2.95;;
74616;SDS011;63123;50.906;4.198;2023-07-08T02:28:42;3.33;;;3.10;;
74616;SDS011;63123;50.906;4.198;2023-07-08T02:31:08;3.10;;;2.67;;
74616;SDS011;63123;50.906;4.198;2023-07-08T02:33:33;2.90;;;2.70;;
74616;SDS011;63123;50.906;4.198;2023-07-08T02:35:59;3.00;;;2.70;;
74616;SDS011;63123;50.906;4.198;2023-07-08T02:38:26;3.20;;;2.90;;
74616;SDS011;63123;50.906;4.198;2023-07-08T02:40:51;3.38;;;3.08;;
74616;SDS011;63123;50.906;4.198;2023-07-08T02:43:17;2.85;;;2.65;;
74616;SDS011;63123;50.906;4.198;2023-07-08T02:45:42;3.33;;;3.03;;
74616;SDS011;63123;50.906;4.198;2023-07-08T02:48:08;3.38;;;3.08;;
74616;SDS011;63123;50.906;4.198;2023-07-08T02:50:34;3.15;;;2.80;;
74616;SDS011;63123;50.906;4.198;2023-07-08T02:52:59;3.50;;;2.90;;
74616;SDS011;63123;50.906;4.198;2023-07-08T02:55:25;3.25;;;2.95;;
74616;SDS011;63123;50.906;4.198;2023-07-08T02:57:50;3.55;;;3.25;;
74616;SDS011;63123;50.906;4.198;2023-07-08T03:00:16;3.20;;;2.92;;
74616;SDS011;63123;50.906;4.198;2023-07-08T03:02:42;4.07;;;3.75;;
74616;SDS011;63123;50.906;4.198;2023-07-08T03:05:07;3.58;;;3.20;;
74616;SDS011;63123;50.906;4.198;2023-07-08T03:07:33;3.40;;;3.10;;
74616;SDS011;63123;50.906;4.198;2023-07-08T03:09:58;3.15;;;2.88;;
74616;SDS011;63123;50.906;4.198;2023-07-08T03:12:24;3.40;;;3.10;;
74616;SDS011;63123;50.906;4.198;2023-07-08T03:14:50;3.85;;;3.50;;
74616;SDS011;63123;50.906;4.198;2023-07-08T03:17:15;3.40;;;3.10;;
74616;SDS011;63123;50.906;4.198;2023-07-08T03:19:43;3.65;;;3.35;;
74616;SDS011;63123;50.906;4.198;2023-07-08T03:22:08;3.95;;;3.17;;
74616;SDS011;63123;50.906;4.198;2023-07-08T03:24:34;3.03;;;2.72;;
74616;SDS011;63123;50.906;4.198;2023-07-08T03:26:59;3.00;;;2.70;;
74616;SDS011;63123;50.906;4.198;2023-07-08T03:29:29;3.00;;;2.70;;
74616;SDS011;63123;50.906;4.198;2023-07-08T03:31:55;3.67;;;3.38;;
74616;SDS011;63123;50.906;4.198;2023-07-08T03:34:21;3.03;;;2.78;;
74616;SDS011;63123;50.906;4.198;2023-07-08T03:36:47;3.10;;;2.80;;
74616;SDS011;63123;50.906;4.198;2023-07-08T03:39:19;3.25;;;2.95;;
74616;SDS011;63123;50.906;4.198;2023-07-08T03:41:47;3.50;;;2.88;;
74616;SDS011;63123;50.906;4.198;2023-07-08T03:44:13;3.45;;;3.15;;
74616;SDS011;63123;50.906;4.198;2023-07-08T03:46:41;3.72;;;3.42;;
74616;SDS011;63123;50.906;4.198;2023-07-08T03:49:08;3.42;;;3.13;;
74616;SDS011;63123;50.906;4.198;2023-07-08T03:51:35;3.45;;;3.15;;
74616;SDS011;63123;50.906;4.198;2023-07-08T03:54:02;3.30;;;3.00;;
74616;SDS011;63123;50.906;4.198;2023-07-08T03:56:28;3.72;;;3.00;;
74616;SDS011;63123;50.906;4.198;2023-07-08T03:58:54;3.40;;;3.10;;
74616;SDS011;63123;50.906;4.198;2023-07-08T04:01:21;3.80;;;3.50;;
74616;SDS011;63123;50.906;4.198;2023-07-08T04:03:54;3.22;;;2.92;;
74616;SDS011;63123;50.906;4.198;2023-07-08T04:06:21;3.40;;;3.10;;
74616;SDS011;63123;50.906;4.198;2023-07-08T04:08:46;3.40;;;3.10;;
74616;SDS011;63123;50.906;4.198;2023-07-08T04:11:13;3.38;;;3.08;;
74616;SDS011;63123;50.906;4.198;2023-07-08T04:13:40;3.20;;;2.90;;
74616;SDS011;63123;50.906;4.198;2023-07-08T04:16:06;3.45;;;3.15;;
74616;SDS011;63123;50.906;4.198;2023-07-08T04:18:33;3.70;;;3.40;;
74616;SDS011;63123;50.906;4.198;2023-07-08T04:20:59;3.22;;;2.92;;
74616;SDS011;63123;50.906;4.198;2023-07-08T04:23:25;3.22;;;2.92;;
74616;SDS011;63123;50.906;4.198;2023-07-08T04:25:53;3.30;;;2.90;;
74616;SDS011;63123;50.906;4.198;2023-07-08T04:28:21;3.47;;;3.17;;
74616;SDS011;63123;50.906;4.198;2023-07-08T04:30:47;3.38;;;3.00;;
74616;SDS011;63123;50.906;4.198;2023-07-08T04:33:13;3.17;;;2.90;;
74616;SDS011;63123;50.906;4.198;2023-07-08T04:35:40;3.13;;;2.80;;
74616;SDS011;63123;50.906;4.198;2023-07-08T04:38:20;3.22;;;2.92;;
74616;SDS011;63123;50.906;4.198;2023-07-08T04:40:48;3.55;;;3.05;;
74616;SDS011;63123;50.906;4.198;2023-07-08T04:43:15;3.40;;;3.10;;
74616;SDS011;63123;50.906;4.198;2023-07-08T04:45:42;3.10;;;2.80;;
74616;SDS011;63123;50.906;4.198;2023-07-08T04:48:12;3.22;;;2.92;;
74616;SDS011;63123;50.906;4.198;2023-07-08T04:50:42;3.10;;;2.80;;
74616;SDS011;63123;50.906;4.198;2023-07-08T04:53:09;3.28;;;2.97;;
74616;SDS011;63123;50.906;4.198;2023-07-08T04:55:36;3.28;;;2.97;;
74616;SDS011;63123;50.906;4.198;2023-07-08T04:58:06;3.30;;;3.08;;
74616;SDS011;63123;50.906;4.198;2023-07-08T05:00:32;3.20;;;2.97;;
74616;SDS011;63123;50.906;4.198;2023-07-08T05:02:57;3.20;;;3.00;;
74616;SDS011;63123;50.906;4.198;2023-07-08T05:05:23;3.75;;;3.45;;
74616;SDS011;63123;50.906;4.198;2023-07-08T05:07:49;3.65;;;3.30;;
74616;SDS011;63123;50.906;4.198;2023-07-08T05:10:14;3.17;;;2.95;;
74616;SDS011;63123;50.906;4.198;2023-07-08T05:12:41;3.25;;;2.95;;
74616;SDS011;63123;50.906;4.198;2023-07-08T05:15:08;2.97;;;2.70;;
74616;SDS011;63123;50.906;4.198;2023-07-08T05:17:34;3.42;;;3.13;;
74616;SDS011;63123;50.906;4.198;2023-07-08T05:20:02;3.35;;;3.05;;
74616;SDS011;63123;50.906;4.198;2023-07-08T05:22:28;3.42;;;3.13;;
74616;SDS011;63123;50.906;4.198;2023-07-08T05:24:54;3.60;;;3.30;;
74616;SDS011;63123;50.906;4.198;2023-07-08T05:27:22;3.03;;;2.80;;
74616;SDS011;63123;50.906;4.198;2023-07-08T05:29:49;3.95;;;3.65;;
74616;SDS011;63123;50.906;4.198;2023-07-08T05:32:15;3.60;;;3.22;;
74616;SDS011;63123;50.906;4.198;2023-07-08T05:34:42;3.88;;;3.38;;
74616;SDS011;63123;50.906;4.198;2023-07-08T05:37:08;3.45;;;3.15;;
74616;SDS011;63123;50.906;4.198;2023-07-08T05:39:34;3.78;;;3.47;;
74616;SDS011;63123;50.906;4.198;2023-07-08T05:42:00;3.47;;;3.17;;
74616;SDS011;63123;50.906;4.198;2023-07-08T05:44:25;3.40;;;3.10;;
74616;SDS011;63123;50.906;4.198;2023-07-08T05:46:51;3.00;;;2.80;;
74616;SDS011;63123;50.906;4.198;2023-07-08T05:49:16;3.20;;;2.90;;
74616;SDS011;63123;50.906;4.198;2023-07-08T05:51:45;2.92;;;2.72;;
74616;SDS011;63123;50.906;4.198;2023-07-08T05:54:11;3.10;;;2.80;;
74616;SDS011;63123;50.906;4.198;2023-07-08T05:56:37;3.53;;;3.22;;
74616;SDS011;63123;50.906;4.198;2023-07-08T05:59:03;3.83;;;3.42;;
74616;SDS011;63123;50.906;4.198;2023-07-08T06:01:29;3.45;;;3.15;;
74616;SDS011;63123;50.906;4.198;2023-07-08T06:03:55;3.63;;;3.22;;
74616;SDS011;63123;50.906;4.198;2023-07-08T06:06:23;3.65;;;3.35;;
74616;SDS011;63123;50.906;4.198;2023-07-08T06:08:49;3.00;;;2.80;;
74616;SDS011;63123;50.906;4.198;2023-07-08T06:11:15;3.08;;;2.88;;
74616;SDS011;63123;50.906;4.198;2023-07-08T06:13:40;2.90;;;2.70;;
74616;SDS011;63123;50.906;4.198;2023-07-08T06:16:06;3.33;;;3.03;;
74616;SDS011;63123;50.906;4.198;2023-07-08T06:18:31;3.35;;;3.05;;
74616;SDS011;63123;50.906;4.198;2023-07-08T06:20:57;3.00;;;2.70;;
74616;SDS011;63123;50.906;4.198;2023-07-08T06:23:24;3.47;;;3.17;;
74616;SDS011;63123;50.906;4.198;2023-07-08T06:25:50;3.40;;;3.10;;
74616;SDS011;63123;50.906;4.198;2023-07-08T06:28:16;3.35;;;3.05;;
74616;SDS011;63123;50.906;4.198;2023-07-08T06:30:42;3.35;;;3.05;;
74616;SDS011;63123;50.906;4.198;2023-07-08T06:33:08;2.95;;;2.67;;
74616;SDS011;63123;50.906;4.198;2023-07-08T06:35:36;3.20;;;2.90;;
74616;SDS011;63123;50.906;4.198;2023-07-08T06:38:01;3.50;;;3.20;;
74616;SDS011;63123;50.906;4.198;2023-07-08T06:40:27;3.15;;;2.85;;
74616;SDS011;63123;50.906;4.198;2023-07-08T06:42:52;3.63;;;3.30;;
74616;SDS011;63123;50.906;4.198;2023-07-08T06:45:18;3.03;;;2.80;;
74616;SDS011;63123;50.906;4.198;2023-07-08T06:47:44;3.30;;;3.00;;
74616;SDS011;63123;50.906;4.198;2023-07-08T06:50:10;3.13;;;2.83;;
74616;SDS011;63123;50.906;4.198;2023-07-08T06:52:35;2.95;;;2.63;;
74616;SDS011;63123;50.906;4.198;2023-07-08T06:55:02;3.78;;;3.38;;
74616;SDS011;63123;50.906;4.198;2023-07-08T06:57:33;3.92;;;3.42;;
74616;SDS011;63123;50.906;4.198;2023-07-08T06:59:58;3.85;;;3.03;;
74616;SDS011;63123;50.906;4.198;2023-07-08T07:02:25;3.30;;;3.00;;
74616;SDS011;63123;50.906;4.198;2023-07-08T07:04:51;2.92;;;2.65;;
74616;SDS011;63123;50.906;4.198;2023-07-08T07:07:16;3.00;;;2.80;;
74616;SDS011;63123;50.906;4.198;2023-07-08T07:09:42;3.38;;;2.95;;
74616;SDS011;63123;50.906;4.198;2023-07-08T07:12:08;2.80;;;2.60;;
74616;SDS011;63123;50.906;4.198;2023-07-08T07:14:33;3.30;;;3.00;;
74616;SDS011;63123;50.906;4.198;2023-07-08T07:16:59;3.72;;;3.40;;
74616;SDS011;63123;50.906;4.198;2023-07-08T07:19:25;3.10;;;2.90;;
74616;SDS011;63123;50.906;4.198;2023-07-08T07:21:51;3.78;;;3.17;;
74616;SDS011;63123;50.906;4.198;2023-07-08T07:24:17;3.17;;;2.88;;
74616;SDS011;63123;50.906;4.198;2023-07-08T07:26:43;3.60;;;3.30;;
74616;SDS011;63123;50.906;4.198;2023-07-08T07:29:09;3.45;;;3.17;;
74616;SDS011;63123;50.906;4.198;2023-07-08T07:31:35;3.42;;;3.10;;
74616;SDS011;63123;50.906;4.198;2023-07-08T07:34:01;3.40;;;3.08;;
74616;SDS011;63123;50.906;4.198;2023-07-08T07:36:27;3.05;;;2.80;;
74616;SDS011;63123;50.906;4.198;2023-07-08T07:38:54;3.63;;;3.28;;
74616;SDS011;63123;50.906;4.198;2023-07-08T07:41:20;3.00;;;2.78;;
74616;SDS011;63123;50.906;4.198;2023-07-08T07:43:46;3.28;;;2.97;;
74616;SDS011;63123;50.906;4.198;2023-07-08T07:46:12;3.30;;;3.00;;
74616;SDS011;63123;50.906;4.198;2023-07-08T07:48:38;3.20;;;2.90;;
74616;SDS011;63123;50.906;4.198;2023-07-08T07:51:04;2.88;;;2.67;;
74616;SDS011;63123;50.906;4.198;2023-07-08T07:53:30;3.30;;;3.00;;
74616;SDS011;63123;50.906;4.198;2023-07-08T07:56:00;3.83;;;3.53;;
74616;SDS011;63123;50.906;4.198;2023-07-08T07:58:27;3.75;;;3.28;;
74616;SDS011;63123;50.906;4.198;2023-07-08T08:00:52;3.63;;;3.28;;
74616;SDS011;63123;50.906;4.198;2023-07-08T08:03:19;3.25;;;2.92;;
74616;SDS011;63123;50.906;4.198;2023-07-08T08:05:45;3.80;;;3.40;;
74616;SDS011;63123;50.906;4.198;2023-07-08T08:08:11;3.28;;;2.97;;
74616;SDS011;63123;50.906;4.198;2023-07-08T08:10:37;3.45;;;3.15;;
74616;SDS011;63123;50.906;4.198;2023-07-08T08:13:03;3.35;;;3.05;;
74616;SDS011;63123;50.906;4.198;2023-07-08T08:15:29;3.08;;;2.78;;
74616;SDS011;63123;50.906;4.198;2023-07-08T08:17:54;3.47;;;3.17;;
74616;SDS011;63123;50.906;4.198;2023-07-08T08:20:21;3.00;;;2.80;;
74616;SDS011;63123;50.906;4.198;2023-07-08T08:22:48;3.80;;;3.40;;
74616;SDS011;63123;50.906;4.198;2023-07-08T08:25:15;3.92;;;3.33;;
74616;SDS011;63123;50.906;4.198;2023-07-08T08:27:43;3.60;;;3.30;;
74616;SDS011;63123;50.906;4.198;2023-07-08T08:30:09;3.58;;;3.28;;
74616;SDS011;63123;50.906;4.198;2023-07-08T08:32:35;3.25;;;2.95;;
74616;SDS011;63123;50.906;4.198;2023-07-08T08:35:01;3.75;;;3.40;;
74616;SDS011;63123;50.906;4.198;2023-07-08T08:37:27;3.78;;;3.47;;
74616;SDS011;63123;50.906;4.198;2023-07-08T08:39:52;3.58;;;3.08;;
74616;SDS011;63123;50.906;4.198;2023-07-08T08:42:28;3.75;;;3.45;;
74616;SDS011;63123;50.906;4.198;2023-07-08T08:44:59;3.75;;;3.45;;
74616;SDS011;63123;50.906;4.198;2023-07-08T08:47:32;3.60;;;3.30;;
74616;SDS011;63123;50.906;4.198;2023-07-08T08:53:11;3.67;;;3.38;;
74616;SDS011;63123;50.906;4.198;2023-07-08T08:55:38;3.42;;;3.13;;
74616;SDS011;63123;50.906;4.198;2023-07-08T08:58:10;3.80;;;3.50;;
74616;SDS011;63123;50.906;4.198;2023-07-08T09:03:21;3.75;;;3.42;;
74616;SDS011;63123;50.906;4.198;2023-07-08T09:06:09;3.58;;;3.28;;
74616;SDS011;63123;50.906;4.198;2023-07-08T09:08:37;3.63;;;3.33;;
74616;SDS011;63123;50.906;4.198;2023-07-08T09:11:07;4.85;;;4.45;;
74616;SDS011;63123;50.906;4.198;2023-07-08T09:13:50;4.60;;;3.60;;
74616;SDS011;63123;50.906;4.198;2023-07-08T09:16:25;3.75;;;3.45;;
74616;SDS011;63123;50.906;4.198;2023-07-08T09:19:00;3.88;;;3.58;;
74616;SDS011;63123;50.906;4.198;2023-07-08T09:22:20;3.83;;;3.53;;
74616;SDS011;63123;50.906;4.198;2023-07-08T09:24:41;3.90;;;3.60;;
74616;SDS011;63123;50.906;4.198;2023-07-08T09:27:10;4.07;;;3.67;;
74616;SDS011;63123;50.906;4.198;2023-07-08T09:29:35;4.18;;;3.78;;
74616;SDS011;63123;50.906;4.198;2023-07-08T09:32:24;4.00;;;3.58;;
74616;SDS011;63123;50.906;4.198;2023-07-08T09:34:52;4.25;;;3.85;;
74616;SDS011;63123;50.906;4.198;2023-07-08T09:39:52;3.92;;;3.53;;
74616;SDS011;63123;50.906;4.198;2023-07-08T09:42:18;4.22;;;3.83;;
74616;SDS011;63123;50.906;4.198;2023-07-08T09:44:46;3.42;;;3.13;;
74616;SDS011;63123;50.906;4.198;2023-07-08T09:47:22;4.28;;;3.92;;
74616;SDS011;63123;50.906;4.198;2023-07-08T09:49:57;3.70;;;3.40;;
74616;SDS011;63123;50.906;4.198;2023-07-08T09:52:24;4.47;;;3.72;;
74616;SDS011;63123;50.906;4.198;2023-07-08T09:54:50;3.80;;;3.50;;
74616;SDS011;63123;50.906;4.198;2023-07-08T09:57:19;4.70;;;4.20;;
74616;SDS011;63123;50.906;4.198;2023-07-08T10:00:02;3.97;;;3.67;;
74616;SDS011;63123;50.906;4.198;2023-07-08T10:02:38;4.90;;;3.85;;
74616;SDS011;63123;50.906;4.198;2023-07-08T10:05:19;4.47;;;4.00;;
74616;SDS011;63123;50.906;4.198;2023-07-08T10:07:53;4.20;;;3.80;;
74616;SDS011;63123;50.906;4.198;2023-07-08T10:10:34;4.70;;;4.30;;
74616;SDS011;63123;50.906;4.198;2023-07-08T10:13:02;4.03;;;3.60;;
74616;SDS011;63123;50.906;4.198;2023-07-08T10:15:51;3.88;;;3.47;;
74616;SDS011;63123;50.906;4.198;2023-07-08T10:18:24;3.83;;;3.53;;
74616;SDS011;63123;50.906;4.198;2023-07-08T10:23:36;4.53;;;4.13;;
74616;SDS011;63123;50.906;4.198;2023-07-08T10:37:03;4.28;;;3.88;;
74616;SDS011;63123;50.906;4.198;2023-07-08T10:39:43;4.68;;;4.28;;
74616;SDS011;63123;50.906;4.198;2023-07-08T10:42:14;4.45;;;3.92;;
74616;SDS011;63123;50.906;4.198;2023-07-08T10:59:10;4.07;;;3.67;;
74616;SDS011;63123;50.906;4.198;2023-07-08T11:06:55;4.70;;;4.15;;
74616;SDS011;63123;50.906;4.198;2023-07-08T11:09:29;5.35;;;4.30;;
74616;SDS011;63123;50.906;4.198;2023-07-08T11:17:59;3.95;;;3.63;;
74616;SDS011;63123;50.906;4.198;2023-07-08T11:25:50;5.03;;;4.53;;
74616;SDS011;63123;50.906;4.198;2023-07-08T11:28:19;4.63;;;4.22;;
74616;SDS011;63123;50.906;4.198;2023-07-08T11:30:47;4.20;;;3.85;;
74616;SDS011;63123;50.906;4.198;2023-07-08T11:33:16;4.53;;;4.13;;
74616;SDS011;63123;50.906;4.198;2023-07-08T11:35:48;3.90;;;3.50;;
74616;SDS011;63123;50.906;4.198;2023-07-08T11:38:19;4.35;;;3.95;;
74616;SDS011;63123;50.906;4.198;2023-07-08T11:41:31;4.05;;;3.70;;
74616;SDS011;63123;50.906;4.198;2023-07-08T11:43:46;5.57;;;4.10;;
74616;SDS011;63123;50.906;4.198;2023-07-08T11:46:18;4.65;;;4.13;;
74616;SDS011;63123;50.906;4.198;2023-07-08T11:48:50;4.82;;;4.25;;
74616;SDS011;63123;50.906;4.198;2023-07-08T11:51:21;4.95;;;4.45;;
74616;SDS011;63123;50.906;4.198;2023-07-08T11:53:51;4.68;;;4.20;;
74616;SDS011;63123;50.906;4.198;2023-07-08T11:56:46;5.03;;;4.53;;
74616;SDS011;63123;50.906;4.198;2023-07-08T11:59:23;6.07;;;4.90;;
74616;SDS011;63123;50.906;4.198;2023-07-08T12:04:31;5.38;;;4.60;;
74616;SDS011;63123;50.906;4.198;2023-07-08T12:07:08;4.80;;;4.40;;
74616;SDS011;63123;50.906;4.198;2023-07-08T12:09:57;5.38;;;4.88;;
74616;SDS011;63123;50.906;4.198;2023-07-08T12:15:08;5.35;;;4.85;;
74616;SDS011;63123;50.906;4.198;2023-07-08T12:17:36;5.57;;;4.80;;
74616;SDS011;63123;50.906;4.198;2023-07-08T12:20:07;6.72;;;5.78;;
74616;SDS011;63123;50.906;4.198;2023-07-08T12:22:43;5.80;;;5.30;;
74616;SDS011;63123;50.906;4.198;2023-07-08T12:25:12;6.13;;;5.38;;
74616;SDS011;63123;50.906;4.198;2023-07-08T12:27:41;6.88;;;5.78;;
74616;SDS011;63123;50.906;4.198;2023-07-08T12:30:09;6.43;;;5.80;;
74616;SDS011;63123;50.906;4.198;2023-07-08T12:32:36;5.75;;;5.25;;
74616;SDS011;63123;50.906;4.198;2023-07-08T12:35:02;6.50;;;5.57;;
74616;SDS011;63123;50.906;4.198;2023-07-08T12:37:29;6.10;;;5.50;;
74616;SDS011;63123;50.906;4.198;2023-07-08T12:39:57;6.53;;;5.93;;
74616;SDS011;63123;50.906;4.198;2023-07-08T12:42:30;6.10;;;5.50;;
74616;SDS011;63123;50.906;4.198;2023-07-08T12:44:56;7.50;;;6.00;;
74616;SDS011;63123;50.906;4.198;2023-07-08T12:47:22;7.07;;;6.00;;
74616;SDS011;63123;50.906;4.198;2023-07-08T12:49:48;7.97;;;6.88;;
74616;SDS011;63123;50.906;4.198;2023-07-08T12:52:20;7.93;;;7.07;;
74616;SDS011;63123;50.906;4.198;2023-07-08T12:54:47;8.47;;;6.53;;
74616;SDS011;63123;50.906;4.198;2023-07-08T12:57:14;7.95;;;7.07;;
74616;SDS011;63123;50.906;4.198;2023-07-08T12:59:42;7.88;;;7.05;;
74616;SDS011;63123;50.906;4.198;2023-07-08T13:02:14;9.85;;;7.68;;
74616;SDS011;63123;50.906;4.198;2023-07-08T13:04:44;10.90;;;8.50;;
74616;SDS011;63123;50.906;4.198;2023-07-08T13:07:44;11.82;;;8.27;;
74616;SDS011;63123;50.906;4.198;2023-07-08T13:10:06;12.07;;;8.65;;
74616;SDS011;63123;50.906;4.198;2023-07-08T13:12:34;9.98;;;8.30;;
74616;SDS011;63123;50.906;4.198;2023-07-08T13:15:04;10.82;;;7.97;;
74616;SDS011;63123;50.906;4.198;2023-07-08T13:17:30;12.73;;;9.40;;
74616;SDS011;63123;50.906;4.198;2023-07-08T13:19:56;10.40;;;8.35;;
74616;SDS011;63123;50.906;4.198;2023-07-08T13:22:22;12.63;;;9.27;;
74616;SDS011;63123;50.906;4.198;2023-07-08T13:24:58;10.30;;;8.75;;
74616;SDS011;63123;50.906;4.198;2023-07-08T13:27:25;11.10;;;9.45;;
74616;SDS011;63123;50.906;4.198;2023-07-08T13:29:52;11.57;;;9.55;;
74616;SDS011;63123;50.906;4.198;2023-07-08T13:32:18;12.98;;;9.18;;
74616;SDS011;63123;50.906;4.198;2023-07-08T13:34:44;13.13;;;9.05;;
74616;SDS011;63123;50.906;4.198;2023-07-08T13:37:14;12.40;;;9.30;;
74616;SDS011;63123;50.906;4.198;2023-07-08T13:39:43;11.93;;;9.05;;
74616;SDS011;63123;50.906;4.198;2023-07-08T13:42:10;13.57;;;9.75;;
74616;SDS011;63123;50.906;4.198;2023-07-08T13:44:46;12.77;;;9.07;;
74616;SDS011;63123;50.906;4.198;2023-07-08T13:50:12;15.45;;;10.63;;
74616;SDS011;63123;50.906;4.198;2023-07-08T13:52:47;14.68;;;10.27;;
74616;SDS011;63123;50.906;4.198;2023-07-08T13:55:22;12.60;;;9.48;;
74616;SDS011;63123;50.906;4.198;2023-07-08T13:57:56;16.30;;;10.57;;
74616;SDS011;63123;50.906;4.198;2023-07-08T14:00:24;14.98;;;11.32;;
74616;SDS011;63123;50.906;4.198;2023-07-08T14:02:50;16.65;;;12.20;;
74616;SDS011;63123;50.906;4.198;2023-07-08T14:05:17;15.98;;;11.98;;
74616;SDS011;63123;50.906;4.198;2023-07-08T14:07:45;17.45;;;11.77;;
74616;SDS011;63123;50.906;4.198;2023-07-08T14:10:11;16.17;;;12.30;;
74616;SDS011;63123;50.906;4.198;2023-07-08T14:12:38;18.60;;;12.57;;
74616;SDS011;63123;50.906;4.198;2023-07-08T14:15:04;16.90;;;11.68;;
74616;SDS011;63123;50.906;4.198;2023-07-08T14:17:30;17.15;;;11.80;;
74616;SDS011;63123;50.906;4.198;2023-07-08T14:19:56;16.10;;;12.15;;
74616;SDS011;63123;50.906;4.198;2023-07-08T14:22:23;14.82;;;10.90;;
74616;SDS011;63123;50.906;4.198;2023-07-08T14:24:49;13.15;;;9.57;;
74616;SDS011;63123;50.906;4.198;2023-07-08T14:27:15;15.63;;;12.45;;
74616;SDS011;63123;50.906;4.198;2023-07-08T14:29:42;16.85;;;11.40;;
74616;SDS011;63123;50.906;4.198;2023-07-08T14:32:15;17.15;;;12.73;;
74616;SDS011;63123;50.906;4.198;2023-07-08T14:34:48;15.32;;;11.85;;
74616;SDS011;63123;50.906;4.198;2023-07-08T14:37:16;18.70;;;13.13;;
74616;SDS011;63123;50.906;4.198;2023-07-08T14:39:42;18.13;;;11.55;;
74616;SDS011;63123;50.906;4.198;2023-07-08T14:42:13;16.52;;;11.45;;
74616;SDS011;63123;50.906;4.198;2023-07-08T14:44:42;19.33;;;12.85;;
74616;SDS011;63123;50.906;4.198;2023-07-08T14:47:10;16.52;;;12.82;;
74616;SDS011;63123;50.906;4.198;2023-07-08T14:49:36;15.88;;;11.52;;
74616;SDS011;63123;50.906;4.198;2023-07-08T14:52:02;16.90;;;12.57;;
74616;SDS011;63123;50.906;4.198;2023-07-08T14:54:28;16.20;;;12.32;;
74616;SDS011;63123;50.906;4.198;2023-07-08T14:56:54;16.23;;;11.82;;
74616;SDS011;63123;50.906;4.198;2023-07-08T14:59:22;15.70;;;11.98;;
74616;SDS011;63123;50.906;4.198;2023-07-08T15:01:50;15.50;;;11.23;;
74616;SDS011;63123;50.906;4.198;2023-07-08T15:04:17;17.17;;;11.82;;
74616;SDS011;63123;50.906;4.198;2023-07-08T15:06:43;15.32;;;11.15;;
74616;SDS011;63123;50.906;4.198;2023-07-08T15:09:10;15.68;;;11.25;;
74616;SDS011;63123;50.906;4.198;2023-07-08T15:11:36;16.23;;;11.85;;
74616;SDS011;63123;50.906;4.198;2023-07-08T15:14:04;14.68;;;10.98;;
74616;SDS011;63123;50.906;4.198;2023-07-08T15:16:36;15.52;;;11.27;;
74616;SDS011;63123;50.906;4.198;2023-07-08T15:19:06;14.80;;;11.23;;
74616;SDS011;63123;50.906;4.198;2023-07-08T15:21:34;15.50;;;11.05;;
74616;SDS011;63123;50.906;4.198;2023-07-08T15:24:00;16.70;;;10.43;;
74616;SDS011;63123;50.906;4.198;2023-07-08T15:26:25;14.82;;;10.95;;
74616;SDS011;63123;50.906;4.198;2023-07-08T15:28:51;15.57;;;10.40;;
74616;SDS011;63123;50.906;4.198;2023-07-08T15:31:21;14.63;;;10.82;;
74616;SDS011;63123;50.906;4.198;2023-07-08T15:33:50;15.40;;;10.10;;
74616;SDS011;63123;50.906;4.198;2023-07-08T15:36:16;15.48;;;10.30;;
74616;SDS011;63123;50.906;4.198;2023-07-08T15:38:42;13.93;;;10.45;;
74616;SDS011;63123;50.906;4.198;2023-07-08T15:41:10;15.50;;;10.82;;
74616;SDS011;63123;50.906;4.198;2023-07-08T15:43:38;12.65;;;10.13;;
74616;SDS011;63123;50.906;4.198;2023-07-08T15:46:04;13.63;;;10.07;;
74616;SDS011;63123;50.906;4.198;2023-07-08T15:48:29;15.98;;;10.07;;
74616;SDS011;63123;50.906;4.198;2023-07-08T15:50:55;11.23;;;9.93;;
74616;SDS011;63123;50.906;4.198;2023-07-08T15:53:20;12.15;;;9.38;;
74616;SDS011;63123;50.906;4.198;2023-07-08T15:55:46;13.77;;;9.80;;
74616;SDS011;63123;50.906;4.198;2023-07-08T15:58:20;13.43;;;10.07;;
74616;SDS011;63123;50.906;4.198;2023-07-08T16:00:51;11.88;;;9.63;;